This is the latest recevied weather packets stored in our database for station/object KY0TEQ-13. If no packets are shown the sender has not sent any weather packets the latest 10 day(s).
| Time | Temp. | Humidity | Pressure | Rain* | Wind** | Luminosity | Snow |
|---|---|---|---|---|---|---|---|
| 1788571301 | 23.89° C | 35% | 1306.7 hPa | 0 mm | - | 11 W/m² | - |
| 1788570997 | 24.44° C | 33% | 1306.7 hPa | 0 mm | - | 13 W/m² | - |
| 1788570692 | 25° C | 32% | 1306.7 hPa | 0 mm | - | 17 W/m² | - |
| 1788570387 | 25° C | 33% | 1306.5 hPa | 0 mm | - | 20 W/m² | - |
| 1788570083 | 25° C | 32% | 1306.7 hPa | 0 mm | - | 21 W/m² | - |
| 1788569778 | 25.56° C | 29% | 1306.5 hPa | 0 mm | - | 22 W/m² | - |
| 1788569474 | 25.56° C | 31% | 1306.6 hPa | 0 mm | - | 27 W/m² | - |
| 1788569168 | 25.56° C | 30% | 1306.5 hPa | 0 mm | - | 29 W/m² | - |
| 1788568863 | 25.56° C | 30% | 1306.5 hPa | 0 mm | - | 26 W/m² | - |
| 1788568559 | 26.11° C | 29% | 1306.6 hPa | 0 mm | - | 33 W/m² | - |
| 1788568255 | 26.11° C | 29% | 1306.7 hPa | 0 mm | - | 44 W/m² | - |
| 1788567949 | 26.67° C | 28% | 1306.7 hPa | 0 mm | - | 46 W/m² | - |
| 1788567644 | 26.67° C | 28% | 1306.6 hPa | 0 mm | - | 49 W/m² | - |
| 1788567339 | 26.67° C | 27% | 1306.7 hPa | 0 mm | - | 57 W/m² | - |
| 1788567032 | 26.67° C | 28% | 1306.6 hPa | 0 mm | - | 76 W/m² | - |
| 1788566728 | 26.11° C | 29% | 1306.5 hPa | 0 mm | - | 88 W/m² | - |
| 1788566424 | 26.67° C | 29% | 1306.6 hPa | 0 mm | - | 94 W/m² | - |
| 1788566118 | 26.67° C | 29% | 1306.7 hPa | 0 mm | - | 122 W/m² | - |
| 1788565813 | 26.67° C | 29% | 1306.6 hPa | 0 mm | - | 136 W/m² | - |
| 1788565513 | 26.11° C | 30% | 1306.6 hPa | 0 mm | - | 157 W/m² | - |
| 1788565209 | 26.11° C | 30% | 1306.6 hPa | 0 mm | - | 174 W/m² | - |
| 1788564904 | 26.11° C | 30% | 1306.6 hPa | 0 mm | - | 54 W/m² | - |
| 1788564601 | 25.56° C | 30% | 1306.5 hPa | 0 mm | - | 226 W/m² | - |
| 1788564296 | 25.56° C | 31% | 1306.6 hPa | 0 mm | - | 79 W/m² | - |
| 1788563992 | 26.11° C | 29% | 1306.7 hPa | 0 mm | - | 280 W/m² | - |
* Rain latest hour (hover to see other rain measurements)
** Current wind speed in m/s (hover to see current wind gust speed)